sensor_id;sensor_type;location;lat;lon;timestamp;temperature;humidity
1524;DHT22;755;53.658;10.118;2024-01-07T00:01:54;-1.70;99.90
1524;DHT22;755;53.658;10.118;2024-01-07T00:11:56;-1.80;1.00
1524;DHT22;755;53.658;10.118;2024-01-07T00:21:59;-1.80;1.00
1524;DHT22;755;53.658;10.118;2024-01-07T00:32:01;-1.70;1.00
1524;DHT22;755;53.658;10.118;2024-01-07T00:42:05;-1.70;1.00
1524;DHT22;755;53.658;10.118;2024-01-07T00:52:08;-1.70;1.00
1524;DHT22;755;53.658;10.118;2024-01-07T01:02:12;-1.70;1.00
1524;DHT22;755;53.658;10.118;2024-01-07T01:12:15;-1.80;1.00
1524;DHT22;755;53.658;10.118;2024-01-07T01:22:18;-1.80;1.00
1524;DHT22;755;53.658;10.118;2024-01-07T01:32:20;-1.80;1.00
1524;DHT22;755;53.658;10.118;2024-01-07T01:42:24;-1.70;1.00
1524;DHT22;755;53.658;10.118;2024-01-07T01:52:27;-1.70;1.00
1524;DHT22;755;53.658;10.118;2024-01-07T02:02:30;-1.60;1.00
1524;DHT22;755;53.658;10.118;2024-01-07T02:12:35;-1.50;1.00
1524;DHT22;755;53.658;10.118;2024-01-07T02:22:38;-1.40;1.00
1524;DHT22;755;53.658;10.118;2024-01-07T02:32:42;-1.30;1.00
1524;DHT22;755;53.658;10.118;2024-01-07T02:42:44;-1.20;1.00
1524;DHT22;755;53.658;10.118;2024-01-07T02:52:47;-1.20;99.90
1524;DHT22;755;53.658;10.118;2024-01-07T03:02:49;-1.10;1.00
1524;DHT22;755;53.658;10.118;2024-01-07T03:12:53;-1.10;99.90
1524;DHT22;755;53.658;10.118;2024-01-07T03:22:55;-1.00;1.00
1524;DHT22;755;53.658;10.118;2024-01-07T03:32:59;-1.00;1.00
1524;DHT22;755;53.658;10.118;2024-01-07T03:43:01;-0.90;99.90
1524;DHT22;755;53.658;10.118;2024-01-07T03:53:04;-0.80;1.00
1524;DHT22;755;53.658;10.118;2024-01-07T04:03:06;-0.80;99.90
1524;DHT22;755;53.658;10.118;2024-01-07T04:13:10;-0.70;1.00
1524;DHT22;755;53.658;10.118;2024-01-07T04:23:12;-0.70;12.60
1524;DHT22;755;53.658;10.118;2024-01-07T04:33:16;-0.70;1.00
1524;DHT22;755;53.658;10.118;2024-01-07T04:43:19;-0.70;1.00
1524;DHT22;755;53.658;10.118;2024-01-07T04:53:24;-0.60;1.00
1524;DHT22;755;53.658;10.118;2024-01-07T05:03:26;-0.50;99.90
1524;DHT22;755;53.658;10.118;2024-01-07T05:13:30;-0.40;1.00
1524;DHT22;755;53.658;10.118;2024-01-07T05:23:33;-0.50;99.90
1524;DHT22;755;53.658;10.118;2024-01-07T05:33:36;-0.30;99.90
1524;DHT22;755;53.658;10.118;2024-01-07T05:43:38;-0.30;99.90
1524;DHT22;755;53.658;10.118;2024-01-07T05:53:42;-0.40;1.00
1524;DHT22;755;53.658;10.118;2024-01-07T06:03:45;-0.50;99.90
1524;DHT22;755;53.658;10.118;2024-01-07T06:13:48;-0.60;99.90
1524;DHT22;755;53.658;10.118;2024-01-07T06:23:50;-0.50;99.90
1524;DHT22;755;53.658;10.118;2024-01-07T06:33:54;-0.50;1.00
1524;DHT22;755;53.658;10.118;2024-01-07T06:43:57;-0.50;1.00
1524;DHT22;755;53.658;10.118;2024-01-07T06:54:01;-0.60;99.90
1524;DHT22;755;53.658;10.118;2024-01-07T07:04:03;-0.50;99.90
1524;DHT22;755;53.658;10.118;2024-01-07T07:14:07;-0.60;99.90
1524;DHT22;755;53.658;10.118;2024-01-07T07:24:23;-0.70;99.90
1524;DHT22;755;53.658;10.118;2024-01-07T07:34:28;-0.70;99.90
1524;DHT22;755;53.658;10.118;2024-01-07T07:44:30;-0.70;99.90
1524;DHT22;755;53.658;10.118;2024-01-07T07:54:37;-0.90;99.90
1524;DHT22;755;53.658;10.118;2024-01-07T08:04:43;-1.00;99.90
1524;DHT22;755;53.658;10.118;2024-01-07T08:14:47;-1.00;99.90
1524;DHT22;755;53.658;10.118;2024-01-07T08:24:49;-1.00;99.90
1524;DHT22;755;53.658;10.118;2024-01-07T08:34:53;-1.20;99.90
1524;DHT22;755;53.658;10.118;2024-01-07T08:44:55;-1.40;99.90
1524;DHT22;755;53.658;10.118;2024-01-07T08:54:59;-1.60;99.90
1524;DHT22;755;53.658;10.118;2024-01-07T09:05:01;-1.70;99.90
1524;DHT22;755;53.658;10.118;2024-01-07T09:15:06;-1.70;99.90
1524;DHT22;755;53.658;10.118;2024-01-07T09:25:09;-1.90;99.90
1524;DHT22;755;53.658;10.118;2024-01-07T09:35:23;-1.90;99.90
1524;DHT22;755;53.658;10.118;2024-01-07T09:45:26;-1.90;99.90
1524;DHT22;755;53.658;10.118;2024-01-07T09:55:33;-1.60;1.00
1524;DHT22;755;53.658;10.118;2024-01-07T10:05:39;-1.60;1.00
1524;DHT22;755;53.658;10.118;2024-01-07T10:15:43;-1.30;99.90
1524;DHT22;755;53.658;10.118;2024-01-07T10:25:45;-1.30;99.90
1524;DHT22;755;53.658;10.118;2024-01-07T10:35:52;-1.40;1.00
1524;DHT22;755;53.658;10.118;2024-01-07T10:46:00;-1.30;1.00
1524;DHT22;755;53.658;10.118;2024-01-07T10:56:08;-1.50;1.00
1524;DHT22;755;53.658;10.118;2024-01-07T11:06:19;-1.40;1.00
1524;DHT22;755;53.658;10.118;2024-01-07T11:16:44;-1.40;1.00
1524;DHT22;755;53.658;10.118;2024-01-07T11:26:47;-1.40;1.00
1524;DHT22;755;53.658;10.118;2024-01-07T11:36:51;-1.10;1.00
1524;DHT22;755;53.658;10.118;2024-01-07T11:46:53;-1.20;99.90
1524;DHT22;755;53.658;10.118;2024-01-07T11:56:57;-1.10;1.00
1524;DHT22;755;53.658;10.118;2024-01-07T12:06:59;-1.30;1.00
1524;DHT22;755;53.658;10.118;2024-01-07T12:17:03;-1.20;1.00
1524;DHT22;755;53.658;10.118;2024-01-07T12:27:06;-1.00;1.00
1524;DHT22;755;53.658;10.118;2024-01-07T12:37:14;-1.00;1.00
1524;DHT22;755;53.658;10.118;2024-01-07T12:47:17;-0.70;99.90
1524;DHT22;755;53.658;10.118;2024-01-07T12:57:20;-1.10;99.90
1524;DHT22;755;53.658;10.118;2024-01-07T13:07:23;-1.00;99.90
1524;DHT22;755;53.658;10.118;2024-01-07T13:17:27;-1.10;81.80
1524;DHT22;755;53.658;10.118;2024-01-07T13:27:33;-1.40;1.00
1524;DHT22;755;53.658;10.118;2024-01-07T13:37:42;-1.40;99.90
1524;DHT22;755;53.658;10.118;2024-01-07T13:47:45;-1.60;1.00
1524;DHT22;755;53.658;10.118;2024-01-07T13:57:50;-1.80;1.00
1524;DHT22;755;53.658;10.118;2024-01-07T14:07:59;-1.60;99.90
1524;DHT22;755;53.658;10.118;2024-01-07T14:18:06;-2.10;99.90
1524;DHT22;755;53.658;10.118;2024-01-07T14:28:14;-2.00;1.00
1524;DHT22;755;53.658;10.118;2024-01-07T14:38:23;-2.10;1.00
1524;DHT22;755;53.658;10.118;2024-01-07T14:48:36;-2.10;99.90
1524;DHT22;755;53.658;10.118;2024-01-07T14:58:41;-2.10;99.90
1524;DHT22;755;53.658;10.118;2024-01-07T15:08:45;-2.30;99.90
1524;DHT22;755;53.658;10.118;2024-01-07T15:18:51;-2.30;41.50
1524;DHT22;755;53.658;10.118;2024-01-07T15:28:53;-2.30;99.90
1524;DHT22;755;53.658;10.118;2024-01-07T15:38:57;-2.50;99.90
1524;DHT22;755;53.658;10.118;2024-01-07T15:49:01;-2.50;47.30
1524;DHT22;755;53.658;10.118;2024-01-07T15:59:22;-2.70;99.90
1524;DHT22;755;53.658;10.118;2024-01-07T16:09:29;-2.50;1.00
1524;DHT22;755;53.658;10.118;2024-01-07T16:19:37;-2.80;1.00
1524;DHT22;755;53.658;10.118;2024-01-07T16:29:42;-2.60;1.00
1524;DHT22;755;53.658;10.118;2024-01-07T16:39:46;-2.70;1.00
1524;DHT22;755;53.658;10.118;2024-01-07T16:49:49;-2.40;99.90
1524;DHT22;755;53.658;10.118;2024-01-07T16:59:55;-2.40;1.00
1524;DHT22;755;53.658;10.118;2024-01-07T17:09:58;-2.40;99.90
1524;DHT22;755;53.658;10.118;2024-01-07T17:20:05;-2.30;1.00
1524;DHT22;755;53.658;10.118;2024-01-07T17:30:13;-2.10;1.00
1524;DHT22;755;53.658;10.118;2024-01-07T17:40:18;-1.90;1.00
1524;DHT22;755;53.658;10.118;2024-01-07T17:50:22;-1.80;1.00
1524;DHT22;755;53.658;10.118;2024-01-07T18:00:26;-1.70;99.90
1524;DHT22;755;53.658;10.118;2024-01-07T18:10:29;-1.90;1.00
1524;DHT22;755;53.658;10.118;2024-01-07T18:20:36;-1.80;99.90
1524;DHT22;755;53.658;10.118;2024-01-07T18:30:40;-2.00;99.90
1524;DHT22;755;53.658;10.118;2024-01-07T18:40:47;-2.00;1.00
1524;DHT22;755;53.658;10.118;2024-01-07T18:50:51;-2.00;86.80
1524;DHT22;755;53.658;10.118;2024-01-07T19:00:55;-2.10;99.90
1524;DHT22;755;53.658;10.118;2024-01-07T19:10:59;-2.20;99.90
1524;DHT22;755;53.658;10.118;2024-01-07T19:21:04;-2.10;99.90
1524;DHT22;755;53.658;10.118;2024-01-07T19:31:07;-2.20;1.00
1524;DHT22;755;53.658;10.118;2024-01-07T19:41:20;-2.30;1.00
1524;DHT22;755;53.658;10.118;2024-01-07T19:51:27;-2.20;1.00
1524;DHT22;755;53.658;10.118;2024-01-07T20:01:34;-2.40;99.90
1524;DHT22;755;53.658;10.118;2024-01-07T20:11:36;-2.20;99.90
1524;DHT22;755;53.658;10.118;2024-01-07T20:21:43;-2.20;1.00
1524;DHT22;755;53.658;10.118;2024-01-07T20:31:46;-2.10;99.90
1524;DHT22;755;53.658;10.118;2024-01-07T20:41:51;-2.20;1.00
1524;DHT22;755;53.658;10.118;2024-01-07T20:51:56;-2.20;1.00
1524;DHT22;755;53.658;10.118;2024-01-07T21:13:52;-2.10;99.90
1524;DHT22;755;53.658;10.118;2024-01-07T21:23:55;-2.10;99.90
1524;DHT22;755;53.658;10.118;2024-01-07T21:34:00;-2.10;99.90
1524;DHT22;755;53.658;10.118;2024-01-07T21:44:03;-1.90;99.90
1524;DHT22;755;53.658;10.118;2024-01-07T21:54:07;-1.90;99.90
1524;DHT22;755;53.658;10.118;2024-01-07T22:04:09;-1.80;99.90
1524;DHT22;755;53.658;10.118;2024-01-07T22:14:12;-1.70;99.90
1524;DHT22;755;53.658;10.118;2024-01-07T22:24:15;-1.70;99.90
1524;DHT22;755;53.658;10.118;2024-01-07T22:34:18;-1.70;99.90
1524;DHT22;755;53.658;10.118;2024-01-07T22:44:20;-1.80;99.90
1524;DHT22;755;53.658;10.118;2024-01-07T22:54:24;-1.80;99.90
1524;DHT22;755;53.658;10.118;2024-01-07T23:04:28;-1.70;99.90
1524;DHT22;755;53.658;10.118;2024-01-07T23:14:32;-1.80;1.00
1524;DHT22;755;53.658;10.118;2024-01-07T23:24:37;-1.70;60.70
1524;DHT22;755;53.658;10.118;2024-01-07T23:34:42;-1.70;1.00
1524;DHT22;755;53.658;10.118;2024-01-07T23:44:44;-1.80;99.90
1524;DHT22;755;53.658;10.118;2024-01-07T23:54:48;-1.80;99.90
